createdAt,value
2016-11-22T00:00:17.705Z,16
2016-11-22T00:01:28.239Z,16
2016-11-22T00:02:38.772Z,16
2016-11-22T00:03:49.307Z,16
2016-11-22T00:05:00.057Z,16
2016-11-22T00:07:35.645Z,16
2016-11-22T00:08:46.683Z,16
2016-11-22T00:10:11.745Z,16
2016-11-22T00:11:22.276Z,16
2016-11-22T00:12:47.345Z,12
2016-11-22T00:13:57.874Z,12
2016-11-22T00:15:22.934Z,12
2016-11-22T00:17:58.525Z,12
2016-11-22T00:19:09.056Z,12
2016-11-22T00:20:19.724Z,12
2016-11-22T00:21:30.755Z,12
2016-11-22T00:22:41.286Z,12
2016-11-22T00:23:51.818Z,12
2016-11-22T00:25:02.350Z,12
2016-11-22T00:26:12.883Z,12
2016-11-22T00:27:23.426Z,12
2016-11-22T00:29:59.047Z,12
2016-11-22T00:31:09.784Z,12
2016-11-22T00:32:20.811Z,8
2016-11-22T00:33:31.340Z,16
2016-11-22T00:34:41.875Z,16
2016-11-22T00:35:52.405Z,12
2016-11-22T00:37:03.036Z,12
2016-11-22T00:38:13.573Z,12
2016-11-22T00:39:24.140Z,12
2016-11-22T00:40:34.676Z,12
2016-11-22T00:41:45.209Z,12
2016-11-22T00:42:55.940Z,12
2016-11-22T00:44:06.471Z,12
2016-11-22T00:45:17.005Z,12
2016-11-22T00:46:27.545Z,12
2016-11-22T00:47:38.074Z,12
2016-11-22T00:48:48.705Z,12
2016-11-22T00:49:59.241Z,12
2016-11-22T00:51:09.811Z,8
2016-11-22T00:52:20.852Z,16
2016-11-22T00:53:31.386Z,16
2016-11-22T00:54:42.113Z,16
2016-11-22T00:55:52.648Z,12
2016-11-22T00:57:17.711Z,12
2016-11-22T00:58:28.249Z,8
2016-11-22T00:59:38.807Z,12
2016-11-22T01:01:03.864Z,12
2016-11-22T01:02:14.409Z,12
2016-11-22T01:03:24.941Z,12
2016-11-22T01:04:35.478Z,16
2016-11-22T01:06:00.742Z,12
2016-11-22T01:07:26.295Z,12
2016-11-22T01:08:36.833Z,12
2016-11-22T01:09:47.622Z,12
2016-11-22T01:10:58.661Z,12
2016-11-22T01:13:34.745Z,12
2016-11-22T01:14:45.275Z,12
2016-11-22T01:16:10.334Z,12
2016-11-22T01:17:20.795Z,12
2016-11-22T01:18:31.243Z,12
2016-11-22T01:19:41.687Z,12
2016-11-22T01:20:52.125Z,12
2016-11-22T01:22:02.566Z,12
2016-11-22T01:23:13.010Z,12
2016-11-22T01:24:23.448Z,4
2016-11-22T01:25:33.891Z,16
2016-11-22T01:26:44.332Z,12
2016-11-22T01:27:54.774Z,12
2016-11-22T01:29:05.230Z,12
2016-11-22T01:30:15.664Z,12
2016-11-22T01:31:26.106Z,12
2016-11-22T01:32:36.562Z,8
2016-11-22T01:33:47.012Z,12
2016-11-22T01:34:57.484Z,8
2016-11-22T01:36:07.923Z,12
2016-11-22T01:37:18.480Z,12
2016-11-22T01:38:28.799Z,12
2016-11-22T01:39:39.122Z,12
2016-11-22T01:42:14.535Z,12
2016-11-22T01:43:24.860Z,12
2016-11-22T01:44:35.175Z,12
2016-11-22T01:45:45.499Z,12
2016-11-22T01:46:55.822Z,12
2016-11-22T01:48:06.172Z,4
2016-11-22T01:49:16.986Z,12
2016-11-22T01:50:27.311Z,12
2016-11-22T01:51:37.639Z,8
2016-11-22T01:52:47.961Z,12
2016-11-22T01:53:58.385Z,12
2016-11-22T01:55:08.705Z,12
2016-11-22T01:56:19.028Z,16
2016-11-22T01:57:29.349Z,12
2016-11-22T01:58:39.679Z,12
2016-11-22T01:59:50.200Z,12
2016-11-22T02:01:00.517Z,12
2016-11-22T02:02:10.836Z,4
2016-11-22T02:03:21.155Z,4
2016-11-22T02:04:31.477Z,16
2016-11-22T02:05:41.797Z,12
2016-11-22T02:06:52.119Z,12
2016-11-22T02:08:02.439Z,12
2016-11-22T02:09:12.759Z,12
2016-11-22T02:10:23.082Z,12
2016-11-22T02:11:33.535Z,8
2016-11-22T02:12:43.983Z,12
2016-11-22T02:13:54.422Z,4
2016-11-22T02:15:04.862Z,12
2016-11-22T02:16:15.321Z,12
2016-11-22T02:17:25.788Z,12
2016-11-22T02:18:36.226Z,4
2016-11-22T02:19:46.665Z,12
2016-11-22T02:20:57.108Z,12
2016-11-22T02:22:07.557Z,12
2016-11-22T02:23:18.206Z,12
2016-11-22T02:24:28.671Z,12
2016-11-22T02:25:39.112Z,12
2016-11-22T02:26:49.577Z,12
2016-11-22T02:28:14.762Z,12
2016-11-22T02:29:25.201Z,12
2016-11-22T02:30:50.674Z,12
2016-11-22T02:32:01.114Z,12
2016-11-22T02:33:11.552Z,12
2016-11-22T02:34:22.195Z,12
2016-11-22T02:35:32.638Z,12
2016-11-22T02:36:43.568Z,12
2016-11-22T02:37:54.007Z,12
2016-11-22T02:39:04.448Z,12
2016-11-22T02:40:14.896Z,12
2016-11-22T02:41:25.336Z,12
2016-11-22T02:42:35.771Z,12
2016-11-22T02:43:46.214Z,12
2016-11-22T02:44:56.756Z,12
2016-11-22T02:46:07.204Z,12
2016-11-22T02:47:17.645Z,12
2016-11-22T02:48:28.080Z,12
2016-11-22T02:49:38.519Z,12
2016-11-22T02:50:48.958Z,12
2016-11-22T02:51:59.402Z,12
2016-11-22T02:53:09.840Z,12
2016-11-22T02:54:20.276Z,12
2016-11-22T02:55:30.713Z,12
2016-11-22T02:56:41.354Z,12
2016-11-22T02:57:51.798Z,12
2016-11-22T02:59:02.241Z,12
2016-11-22T03:00:12.680Z,12
2016-11-22T03:01:23.607Z,12
2016-11-22T03:02:34.145Z,12
2016-11-22T03:03:44.588Z,12
2016-11-22T03:04:55.030Z,12
2016-11-22T03:06:05.961Z,12
2016-11-22T03:07:16.410Z,8
2016-11-22T03:08:26.950Z,12
2016-11-22T03:09:37.890Z,12
2016-11-22T03:10:48.335Z,12
2016-11-22T03:11:58.777Z,12
2016-11-22T03:13:09.218Z,12
2016-11-22T03:14:19.684Z,12
2016-11-22T03:15:30.126Z,12
2016-11-22T03:16:40.566Z,12
2016-11-22T03:17:51.009Z,12
2016-11-22T03:19:01.446Z,12
2016-11-22T03:20:11.986Z,12
2016-11-22T03:21:22.344Z,12
2016-11-22T03:22:32.673Z,8
2016-11-22T03:23:42.992Z,12
2016-11-22T03:24:53.343Z,12
2016-11-22T03:26:03.801Z,4
2016-11-22T03:27:14.120Z,12
2016-11-22T03:28:24.440Z,12
2016-11-22T03:29:34.762Z,12
2016-11-22T03:30:45.082Z,12
2016-11-22T03:31:55.604Z,12
2016-11-22T03:33:06.051Z,12
2016-11-22T03:34:16.963Z,12
2016-11-22T03:35:27.373Z,12
2016-11-22T03:36:37.786Z,12
2016-11-22T03:37:48.296Z,12
2016-11-22T03:38:58.706Z,12
2016-11-22T03:40:09.124Z,12
2016-11-22T03:41:20.023Z,12
2016-11-22T03:42:30.440Z,12
2016-11-22T03:43:40.881Z,12
2016-11-22T03:44:51.300Z,12
2016-11-22T03:46:01.709Z,8
2016-11-22T03:47:12.125Z,12
2016-11-22T03:48:37.187Z,12
2016-11-22T03:49:47.600Z,12
2016-11-22T03:50:58.009Z,12
2016-11-22T03:52:08.421Z,12
2016-11-22T03:53:18.834Z,12
2016-11-22T03:54:43.994Z,12
2016-11-22T03:55:54.405Z,12
2016-11-22T03:57:04.933Z,12
2016-11-22T03:58:15.490Z,12
2016-11-22T03:59:26.027Z,12
2016-11-22T04:00:36.566Z,12
2016-11-22T04:01:47.097Z,12
2016-11-22T04:02:57.626Z,12
2016-11-22T04:04:08.160Z,12
2016-11-22T04:05:18.689Z,12
2016-11-22T04:06:29.232Z,12
2016-11-22T04:07:39.763Z,12
2016-11-22T04:08:50.301Z,12
2016-11-22T04:10:00.833Z,12
2016-11-22T04:11:11.861Z,12
2016-11-22T04:12:22.390Z,12
2016-11-22T04:13:32.923Z,16
2016-11-22T04:14:43.453Z,4
2016-11-22T04:15:53.982Z,12
2016-11-22T04:17:04.714Z,12
2016-11-22T04:18:15.271Z,12
2016-11-22T04:19:25.804Z,12
2016-11-22T04:20:50.860Z,12
2016-11-22T04:22:01.887Z,8
2016-11-22T04:23:12.423Z,8
2016-11-22T04:24:22.952Z,16
2016-11-22T04:25:33.482Z,12
2016-11-22T04:26:58.542Z,12
2016-11-22T04:28:09.275Z,12
2016-11-22T04:29:19.808Z,12
2016-11-22T04:30:30.342Z,12
2016-11-22T04:31:40.873Z,12
2016-11-22T04:32:51.404Z,12
2016-11-22T04:34:01.940Z,12
2016-11-22T04:35:12.470Z,12
2016-11-22T04:36:23.004Z,12
2016-11-22T04:37:33.537Z,12
2016-11-22T04:38:44.075Z,12
2016-11-22T04:39:54.619Z,12
2016-11-22T04:41:05.150Z,12
2016-11-22T04:42:16.181Z,12
2016-11-22T04:43:27.215Z,12
2016-11-22T04:44:37.856Z,12
2016-11-22T04:45:48.387Z,12
2016-11-22T04:46:58.921Z,12
2016-11-22T04:48:09.948Z,12
2016-11-22T04:49:20.492Z,12
2016-11-22T04:50:31.127Z,12
2016-11-22T04:51:41.656Z,12
2016-11-22T04:52:52.192Z,12
2016-11-22T04:54:02.720Z,12
2016-11-22T04:55:13.247Z,12
2016-11-22T04:56:23.980Z,12
2016-11-22T04:57:34.509Z,12
2016-11-22T04:58:45.038Z,12
2016-11-22T04:59:55.569Z,12
2016-11-22T05:01:20.571Z,12
2016-11-22T05:02:31.012Z,12
2016-11-22T05:03:41.486Z,12
2016-11-22T05:04:51.925Z,12
2016-11-22T05:06:02.362Z,12
2016-11-22T05:07:12.902Z,12
2016-11-22T05:08:23.339Z,12
2016-11-22T05:09:33.779Z,12
2016-11-22T05:10:44.219Z,12
2016-11-22T05:11:54.659Z,12
2016-11-22T05:13:05.297Z,12
2016-11-22T05:14:15.732Z,12
2016-11-22T05:15:26.173Z,12
2016-11-22T05:16:36.650Z,4
2016-11-22T05:17:47.092Z,16
2016-11-22T05:18:57.753Z,12
2016-11-22T05:20:08.191Z,12
2016-11-22T05:21:18.627Z,12
2016-11-22T05:22:29.071Z,12
2016-11-22T05:23:39.507Z,12
2016-11-22T05:24:49.942Z,12
2016-11-22T05:26:00.389Z,12
2016-11-22T05:27:10.840Z,12
2016-11-22T05:28:21.318Z,12
2016-11-22T05:29:31.755Z,12
2016-11-22T05:30:42.194Z,12
2016-11-22T05:31:52.636Z,12
2016-11-22T05:33:03.074Z,12
2016-11-22T05:34:13.515Z,12
2016-11-22T05:35:38.502Z,12
2016-11-22T05:36:48.940Z,12
2016-11-22T05:37:59.378Z,12
2016-11-22T05:39:09.814Z,12
2016-11-22T05:40:20.252Z,12
2016-11-22T05:41:30.790Z,12
2016-11-22T05:42:41.235Z,8
2016-11-22T05:43:51.684Z,8
2016-11-22T05:45:02.121Z,12
2016-11-22T05:46:12.559Z,8
2016-11-22T05:47:23.001Z,12
2016-11-22T05:48:33.445Z,12
2016-11-22T05:49:43.885Z,12
2016-11-22T05:50:54.326Z,12
2016-11-22T05:52:05.252Z,8
2016-11-22T05:53:15.787Z,12
2016-11-22T05:54:40.776Z,12
2016-11-22T05:55:51.236Z,12
2016-11-22T05:57:01.684Z,12
2016-11-22T05:58:12.121Z,12
2016-11-22T05:59:22.565Z,8
2016-11-22T06:00:33.009Z,4
2016-11-22T06:01:43.446Z,12
2016-11-22T06:02:53.884Z,12
2016-11-22T06:04:04.420Z,12
2016-11-22T06:05:14.889Z,12
2016-11-22T06:06:25.828Z,12
2016-11-22T06:07:36.270Z,12
2016-11-22T06:08:46.708Z,4
2016-11-22T06:09:57.634Z,12
2016-11-22T06:11:08.073Z,12
2016-11-22T06:12:18.512Z,12
2016-11-22T06:13:28.950Z,4
2016-11-22T06:14:39.390Z,12
2016-11-22T06:15:49.952Z,12
2016-11-22T06:17:00.270Z,12
2016-11-22T06:18:10.593Z,8
2016-11-22T06:19:20.916Z,12
2016-11-22T06:20:31.235Z,12
2016-11-22T06:21:41.662Z,12
2016-11-22T06:22:51.984Z,12
2016-11-22T06:24:03.179Z,12
2016-11-22T06:25:28.063Z,12
2016-11-22T06:26:38.487Z,12
2016-11-22T06:27:48.806Z,4
2016-11-22T06:28:59.157Z,12
2016-11-22T06:30:09.479Z,12
2016-11-22T06:31:19.798Z,12
2016-11-22T06:32:30.116Z,12
2016-11-22T06:33:40.435Z,12
2016-11-22T06:34:50.755Z,12
2016-11-22T06:36:01.075Z,12
2016-11-22T06:37:11.402Z,12
2016-11-22T06:38:21.831Z,12
2016-11-22T06:39:32.182Z,12
2016-11-22T06:40:42.505Z,12
2016-11-22T06:41:52.827Z,12
2016-11-22T06:43:03.143Z,12
2016-11-22T06:44:13.474Z,12
2016-11-22T06:45:23.790Z,12
2016-11-22T06:46:34.113Z,12
2016-11-22T06:47:44.434Z,12
2016-11-22T06:48:55.235Z,12
2016-11-22T06:50:20.124Z,12
2016-11-22T06:51:30.444Z,12
2016-11-22T06:52:40.763Z,12
2016-11-22T06:53:51.080Z,12
2016-11-22T06:55:01.504Z,12
2016-11-22T06:56:11.827Z,12
2016-11-22T06:57:22.151Z,12
2016-11-22T06:58:32.473Z,12
2016-11-22T06:59:42.828Z,12
2016-11-22T07:00:53.157Z,12
2016-11-22T07:02:03.474Z,12
2016-11-22T07:03:28.360Z,12
2016-11-22T07:04:38.697Z,12
2016-11-22T07:05:49.227Z,8
2016-11-22T07:07:14.114Z,8
2016-11-22T07:08:24.434Z,12
2016-11-22T07:09:34.757Z,12
2016-11-22T07:10:45.078Z,12
2016-11-22T07:13:21.375Z,12
2016-11-22T07:14:31.694Z,12
2016-11-22T07:15:42.016Z,12
2016-11-22T07:16:52.508Z,12
2016-11-22T07:18:03.406Z,12
2016-11-22T07:19:13.843Z,12
2016-11-22T07:20:24.252Z,12
2016-11-22T07:21:34.668Z,8
2016-11-22T07:22:45.115Z,12
2016-11-22T07:23:55.524Z,12
2016-11-22T07:25:05.932Z,12
2016-11-22T07:26:16.427Z,4
2016-11-22T07:27:41.680Z,12
2016-11-22T07:28:52.219Z,12
2016-11-22T07:30:02.747Z,12
2016-11-22T07:31:13.281Z,12
2016-11-22T07:32:23.808Z,4
2016-11-22T07:33:34.343Z,12
2016-11-22T07:34:44.885Z,12
2016-11-22T07:35:55.426Z,12
2016-11-22T07:37:20.481Z,4
2016-11-22T07:38:31.111Z,12
2016-11-22T07:39:41.640Z,12
2016-11-22T07:40:52.169Z,12
2016-11-22T07:42:02.701Z,12
2016-11-22T07:43:27.762Z,12
2016-11-22T07:44:38.424Z,8
2016-11-22T07:45:48.953Z,16
2016-11-22T07:46:59.488Z,12
2016-11-22T07:48:10.018Z,12
2016-11-22T07:49:20.754Z,8
2016-11-22T07:50:31.285Z,16
2016-11-22T07:51:56.336Z,16
2016-11-22T07:53:21.390Z,16
2016-11-22T07:54:31.926Z,16
2016-11-22T07:55:42.482Z,16
2016-11-22T07:56:53.015Z,4
2016-11-22T07:58:03.544Z,12
2016-11-22T07:59:14.077Z,12
2016-11-22T08:00:24.610Z,16
2016-11-22T08:01:35.147Z,16
2016-11-22T08:02:45.708Z,16
2016-11-22T08:03:56.241Z,16
2016-11-22T08:05:06.770Z,16
2016-11-22T08:06:17.524Z,16
2016-11-22T08:07:28.055Z,20
2016-11-22T08:08:38.583Z,20
2016-11-22T08:09:49.130Z,20
2016-11-22T08:10:59.658Z,8
2016-11-22T08:12:10.289Z,8
2016-11-22T08:13:20.821Z,12
2016-11-22T08:14:31.361Z,12
2016-11-22T08:15:41.891Z,12
2016-11-22T08:16:52.423Z,16
2016-11-22T08:18:03.655Z,20
2016-11-22T08:19:14.182Z,24
2016-11-22T08:20:24.712Z,28
2016-11-22T08:21:35.238Z,36
2016-11-22T08:22:45.770Z,40
2016-11-22T08:23:56.507Z,44
2016-11-22T08:25:07.037Z,56
2016-11-22T08:26:18.069Z,64
2016-11-22T08:27:28.601Z,72
2016-11-22T08:28:39.136Z,76
2016-11-22T08:29:49.700Z,80
2016-11-22T08:31:00.233Z,92
2016-11-22T08:32:10.760Z,92
2016-11-22T08:33:21.305Z,92
2016-11-22T08:34:31.879Z,92
2016-11-22T08:35:42.413Z,96
2016-11-22T08:36:52.938Z,88
2016-11-22T08:38:03.466Z,84
2016-11-22T08:39:14.003Z,84
2016-11-22T08:40:24.529Z,88
2016-11-22T08:41:35.102Z,92
2016-11-22T08:42:46.143Z,96
2016-11-22T08:43:56.698Z,108
2016-11-22T08:45:07.232Z,112
2016-11-22T08:46:17.719Z,124
2016-11-22T08:47:28.357Z,132
2016-11-22T08:48:38.797Z,136
2016-11-22T08:49:49.238Z,152
2016-11-22T08:51:14.219Z,152
2016-11-22T08:52:24.779Z,148
2016-11-22T08:53:35.210Z,156
2016-11-22T08:54:45.654Z,148
2016-11-22T08:55:56.088Z,156
2016-11-22T08:57:06.528Z,152
2016-11-22T08:58:17.103Z,160
2016-11-22T08:59:28.026Z,152
2016-11-22T09:00:38.463Z,152
2016-11-22T09:01:48.906Z,160
2016-11-22T09:02:59.344Z,160
2016-11-22T09:04:09.778Z,184
2016-11-22T09:05:20.217Z,204
2016-11-22T09:06:30.658Z,240
2016-11-22T09:07:41.093Z,268
2016-11-22T09:08:51.530Z,304
2016-11-22T09:10:02.654Z,324
2016-11-22T09:11:13.088Z,320
2016-11-22T09:12:23.534Z,332
2016-11-22T09:13:33.977Z,308
2016-11-22T09:14:44.415Z,292
2016-11-22T09:15:54.855Z,248
2016-11-22T09:17:05.290Z,232
2016-11-22T09:18:15.727Z,244
2016-11-22T09:19:26.168Z,208
2016-11-22T09:20:36.610Z,204
2016-11-22T09:21:47.683Z,256
2016-11-22T09:22:58.118Z,280
2016-11-22T09:24:08.551Z,300
2016-11-22T09:25:18.992Z,220
2016-11-22T09:26:29.425Z,196
2016-11-22T09:27:39.965Z,192
2016-11-22T09:28:50.400Z,208
2016-11-22T09:30:00.851Z,204
2016-11-22T09:31:11.284Z,212
2016-11-22T09:32:21.725Z,244
2016-11-22T09:33:32.164Z,264
2016-11-22T09:34:42.600Z,248
2016-11-22T09:35:53.041Z,232
2016-11-22T09:37:03.473Z,268
2016-11-22T09:38:14.427Z,272
2016-11-22T09:39:25.067Z,288
2016-11-22T09:40:35.500Z,352
2016-11-22T09:41:45.937Z,380
2016-11-22T09:42:56.371Z,392
2016-11-22T09:44:06.805Z,400
2016-11-22T09:45:17.181Z,460
2016-11-22T09:46:27.500Z,532
2016-11-22T09:47:37.835Z,440
2016-11-22T09:48:48.164Z,440
2016-11-22T09:49:58.960Z,408
2016-11-22T09:51:09.277Z,416
2016-11-22T09:52:19.595Z,488
2016-11-22T09:53:30.397Z,560
2016-11-22T09:54:40.715Z,528
2016-11-22T09:55:51.042Z,600
2016-11-22T09:57:01.564Z,652
2016-11-22T09:58:11.899Z,808
2016-11-22T10:03:11.410Z,664
2016-11-22T10:04:21.843Z,784
2016-11-22T10:05:32.279Z,796
2016-11-22T10:06:42.717Z,748
2016-11-22T10:07:53.157Z,816
2016-11-22T10:09:03.794Z,896
2016-11-22T10:10:14.230Z,744
2016-11-22T10:11:24.670Z,640
2016-11-22T10:12:35.144Z,464
2016-11-22T10:13:45.585Z,492
2016-11-22T10:14:56.020Z,452
2016-11-22T10:16:06.471Z,440
2016-11-22T10:17:16.909Z,404
2016-11-22T10:18:27.344Z,448
2016-11-22T10:20:07.056Z,496
2016-11-22T10:21:17.378Z,520
2016-11-22T10:23:52.591Z,608
2016-11-22T10:25:02.910Z,604
2016-11-22T10:26:13.709Z,672
2016-11-22T10:27:24.034Z,876
2016-11-22T10:28:34.354Z,804
2016-11-22T10:29:44.677Z,704
2016-11-22T10:30:55.096Z,720
2016-11-22T10:32:05.414Z,872
2016-11-22T10:33:15.732Z,1148
2016-11-22T10:34:26.059Z,1240
2016-11-22T10:35:36.378Z,1244
2016-11-22T10:36:46.694Z,1192
2016-11-22T10:38:11.584Z,1116
2016-11-22T10:39:21.901Z,1028
2016-11-22T10:40:32.230Z,1104
2016-11-22T10:41:42.647Z,1064
2016-11-22T10:42:52.965Z,1072
2016-11-22T10:44:03.287Z,1180
2016-11-22T10:45:14.096Z,1212
2016-11-22T10:46:24.415Z,1044
2016-11-22T10:47:34.932Z,752
2016-11-22T10:48:45.254Z,732
2016-11-22T10:49:55.569Z,796
2016-11-22T10:51:06.361Z,760
2016-11-22T10:52:17.153Z,684
2016-11-22T10:53:27.963Z,732
2016-11-22T10:54:38.817Z,812
2016-11-22T10:55:49.145Z,988
2016-11-22T10:56:59.940Z,996
2016-11-22T10:58:10.854Z,1128
2016-11-22T10:59:35.949Z,1268
2016-11-22T11:00:46.320Z,1264
2016-11-22T11:01:56.727Z,1096
2016-11-22T11:03:07.136Z,1120
2016-11-22T11:04:17.755Z,1096
2016-11-22T11:05:28.167Z,1168
2016-11-22T11:06:38.581Z,1184
2016-11-22T11:07:49.031Z,1116
2016-11-22T11:09:14.484Z,1308
2016-11-22T11:10:24.891Z,1256
2016-11-22T11:11:35.304Z,1236
2016-11-22T11:12:45.712Z,1392
2016-11-22T11:13:56.116Z,1528
2016-11-22T11:15:06.527Z,1568
2016-11-22T11:16:16.939Z,1252
2016-11-22T11:17:27.351Z,1384
2016-11-22T11:18:37.760Z,1100
2016-11-22T11:19:48.170Z,1068
2016-11-22T11:20:58.581Z,1064
2016-11-22T11:22:09.496Z,1104
2016-11-22T11:23:34.461Z,1204
2016-11-22T11:24:44.873Z,1188
2016-11-22T11:25:55.480Z,1152
2016-11-22T11:27:05.896Z,1116
2016-11-22T11:28:16.308Z,1064
2016-11-22T11:29:26.807Z,1080
2016-11-22T11:30:37.339Z,1036
2016-11-22T11:31:48.121Z,1032
2016-11-22T11:32:58.651Z,1044
2016-11-22T11:34:09.184Z,1092
2016-11-22T11:35:19.721Z,1124
2016-11-22T11:36:30.249Z,1188
2016-11-22T11:37:40.791Z,1248
2016-11-22T11:38:51.328Z,1256
2016-11-22T11:40:16.383Z,1316
2016-11-22T11:41:26.914Z,1164
2016-11-22T11:42:37.441Z,948
2016-11-22T11:43:47.973Z,1080
2016-11-22T11:44:59.022Z,1456
2016-11-22T11:46:09.556Z,1524
2016-11-22T11:47:20.083Z,1428
2016-11-22T11:48:30.823Z,1320
2016-11-22T11:49:41.352Z,1616
2016-11-22T11:50:51.885Z,1656
2016-11-22T11:52:02.429Z,1664
2016-11-22T11:53:12.959Z,1724
2016-11-22T11:54:23.493Z,1692
2016-11-22T11:55:34.054Z,1012
2016-11-22T11:56:44.612Z,992
2016-11-22T11:57:55.139Z,1772
2016-11-22T11:59:05.673Z,1652
2016-11-22T12:00:16.431Z,1764
2016-11-22T12:01:27.460Z,856
2016-11-22T12:02:37.993Z,1052
2016-11-22T12:03:48.524Z,1752
2016-11-22T12:04:59.056Z,1808
2016-11-22T12:06:09.587Z,1860
2016-11-22T12:07:20.117Z,1840
2016-11-22T12:08:31.153Z,1816
2016-11-22T12:09:41.696Z,1852
2016-11-22T12:10:52.251Z,1864
2016-11-22T12:12:02.980Z,1948
2016-11-22T12:13:13.509Z,1920
2016-11-22T12:14:24.561Z,2056
2016-11-22T12:15:49.625Z,992
2016-11-22T12:17:00.182Z,1900
2016-11-22T12:18:10.732Z,2136
2016-11-22T12:19:21.302Z,2184
2016-11-22T12:20:31.839Z,2260
2016-11-22T12:21:42.381Z,2276
2016-11-22T12:22:53.112Z,2312
2016-11-22T12:24:18.171Z,2192
2016-11-22T12:25:28.713Z,2180
2016-11-22T12:26:39.247Z,2504
2016-11-22T12:27:49.776Z,1260
2016-11-22T12:29:00.316Z,2244
2016-11-22T12:30:10.848Z,1112
2016-11-22T12:31:21.386Z,984
2016-11-22T12:32:31.923Z,2168
2016-11-22T12:33:42.458Z,2372
2016-11-22T12:34:52.988Z,1668
2016-11-22T12:36:03.524Z,1304
2016-11-22T12:37:14.057Z,2472
2016-11-22T12:38:24.504Z,2492
2016-11-22T12:39:34.930Z,2352
2016-11-22T12:40:59.889Z,2172
2016-11-22T12:42:10.303Z,2428
2016-11-22T12:43:20.720Z,2624
2016-11-22T12:44:31.173Z,1156
2016-11-22T12:45:41.590Z,2396
2016-11-22T12:46:52.031Z,2216
2016-11-22T12:48:16.996Z,2392
2016-11-22T12:49:27.405Z,2596
2016-11-22T12:50:37.818Z,2500
2016-11-22T12:51:48.230Z,2628
2016-11-22T12:52:58.640Z,2616
2016-11-22T12:54:09.056Z,2600
2016-11-22T12:55:34.021Z,1548
2016-11-22T12:56:44.432Z,2660
2016-11-22T12:58:09.405Z,1164
2016-11-22T12:59:19.826Z,1328
2016-11-22T13:00:30.235Z,1636
2016-11-22T13:01:40.652Z,1424
2016-11-22T13:02:51.056Z,1748
2016-11-22T13:04:01.466Z,1368
2016-11-22T13:05:11.933Z,1832
2016-11-22T13:06:22.347Z,2388
2016-11-22T13:07:32.846Z,2208
2016-11-22T13:08:43.382Z,2740
2016-11-22T13:13:37.467Z,1648
2016-11-22T13:14:47.789Z,1416
2016-11-22T13:15:58.193Z,1696
2016-11-22T13:17:08.601Z,2140
2016-11-22T13:18:33.569Z,3500
2016-11-22T13:19:43.983Z,2328
2016-11-22T13:20:54.394Z,2496
2016-11-22T13:22:19.360Z,2684
2016-11-22T13:23:29.781Z,1808
2016-11-22T13:24:40.197Z,2244
2016-11-22T13:25:50.607Z,3324
2016-11-22T13:27:01.022Z,2688
2016-11-22T13:28:12.031Z,2952
2016-11-22T13:29:22.933Z,3068
2016-11-22T13:30:33.344Z,2964
2016-11-22T13:31:43.753Z,2912
2016-11-22T13:32:54.166Z,2868
2016-11-22T13:34:19.333Z,2764
2016-11-22T13:35:29.752Z,2840
2016-11-22T13:36:40.172Z,2908
2016-11-22T13:37:50.584Z,2256
2016-11-22T13:39:01.003Z,2824
2016-11-22T13:40:12.553Z,2832
2016-11-22T13:41:22.965Z,2832
2016-11-22T13:42:33.390Z,2716
2016-11-22T13:45:08.782Z,2860
2016-11-22T13:46:19.199Z,2828
2016-11-22T13:47:30.111Z,2892
2016-11-22T13:48:40.530Z,2704
2016-11-22T13:49:50.953Z,1620
2016-11-22T13:51:01.367Z,1084
2016-11-22T13:52:12.273Z,1052
2016-11-22T13:53:22.689Z,872
2016-11-22T13:54:33.588Z,1420
2016-11-22T13:55:44.201Z,2124
2016-11-22T13:56:54.618Z,2876
2016-11-22T13:58:05.031Z,2820
2016-11-22T13:59:15.446Z,2936
2016-11-22T14:00:25.790Z,2532
2016-11-22T14:01:36.142Z,1248
2016-11-22T14:02:46.465Z,1584
2016-11-22T14:03:56.792Z,1676
2016-11-22T14:06:32.494Z,2540
2016-11-22T14:07:42.852Z,2672
2016-11-22T14:08:53.181Z,2676
2016-11-22T14:10:04.012Z,2108
2016-11-22T14:11:14.352Z,2084
2016-11-22T14:12:24.681Z,2208
2016-11-22T14:13:35.008Z,2524
2016-11-22T14:14:45.814Z,2316
2016-11-22T14:15:56.134Z,2644
2016-11-22T14:17:06.512Z,2984
2016-11-22T14:18:16.841Z,2868
2016-11-22T14:19:27.165Z,2484
2016-11-22T14:20:37.482Z,2156
2016-11-22T14:21:47.813Z,2708
2016-11-22T14:22:58.226Z,2728
2016-11-22T14:24:08.682Z,2216
2016-11-22T14:25:19.133Z,1660
2016-11-22T14:26:29.580Z,1048
2016-11-22T14:27:40.023Z,1944
2016-11-22T14:28:50.466Z,2756
2016-11-22T14:30:00.917Z,2672
2016-11-22T14:31:25.906Z,2892
2016-11-22T14:32:50.896Z,2380
2016-11-22T14:34:01.335Z,2544
2016-11-22T14:35:11.789Z,1652
2016-11-22T14:36:22.235Z,2800
2016-11-22T14:37:32.690Z,2312
2016-11-22T14:38:43.135Z,2116
2016-11-22T14:39:53.578Z,3124
2016-11-22T14:41:04.124Z,2796
2016-11-22T14:42:14.775Z,2396
2016-11-22T14:43:25.231Z,2608
2016-11-22T14:44:36.661Z,2360
2016-11-22T14:45:47.676Z,2968
2016-11-22T14:46:58.823Z,2644
2016-11-22T14:48:09.362Z,2604
2016-11-22T14:49:19.898Z,3084
2016-11-22T14:50:30.440Z,3124
2016-11-22T14:51:40.976Z,2548
2016-11-22T14:52:51.509Z,3020
2016-11-22T14:54:16.570Z,2500
2016-11-22T14:55:27.102Z,2300
2016-11-22T14:56:37.647Z,2912
2016-11-22T14:57:48.180Z,2760
2016-11-22T14:58:58.720Z,2516
2016-11-22T15:00:09.258Z,2748
2016-11-22T15:01:34.318Z,2784
2016-11-22T15:02:44.852Z,2308
2016-11-22T15:03:55.393Z,2696
2016-11-22T15:05:05.926Z,2552
2016-11-22T15:07:41.529Z,2136
2016-11-22T15:08:52.064Z,2044
2016-11-22T15:10:02.607Z,2460
2016-11-22T15:11:13.144Z,2560
2016-11-22T15:12:23.674Z,2424
2016-11-22T15:13:34.216Z,2144
2016-11-22T15:14:44.959Z,1964
2016-11-22T15:16:10.022Z,2104
2016-11-22T15:17:20.554Z,2328
2016-11-22T15:18:31.087Z,2388
2016-11-22T15:19:41.622Z,2396
2016-11-22T15:20:52.153Z,2280
2016-11-22T15:22:02.692Z,2340
2016-11-22T15:23:13.226Z,1856
2016-11-22T15:24:38.288Z,1516
2016-11-22T15:26:03.552Z,1684
2016-11-22T15:27:14.591Z,2004
2016-11-22T15:28:39.654Z,2240
2016-11-22T15:29:50.189Z,1768
2016-11-22T15:31:15.255Z,2056
2016-11-22T15:32:25.796Z,1968
2016-11-22T15:33:50.857Z,1532
2016-11-22T15:35:01.393Z,1960
2016-11-22T15:36:11.925Z,1948
2016-11-22T15:37:22.459Z,2028
2016-11-22T15:38:32.995Z,1940
2016-11-22T15:39:58.058Z,1712
2016-11-22T15:41:08.592Z,1728
2016-11-22T15:42:19.127Z,1356
2016-11-22T15:43:29.661Z,1632
2016-11-22T15:44:40.200Z,2040
2016-11-22T15:45:50.936Z,2060
2016-11-22T15:47:01.470Z,1924
2016-11-22T15:48:12.005Z,1696
2016-11-22T15:51:16.862Z,2152
2016-11-22T15:52:27.395Z,2392
2016-11-22T15:53:52.455Z,2140
2016-11-22T15:55:02.988Z,2000
2016-11-22T15:56:14.739Z,1864
2016-11-22T15:57:25.270Z,1984
2016-11-22T15:58:35.805Z,1836
2016-11-22T15:59:46.365Z,1656
2016-11-22T16:00:56.899Z,1856
2016-11-22T16:02:07.628Z,2116
2016-11-22T16:03:18.170Z,2044
2016-11-22T16:04:29.213Z,1856
2016-11-22T16:05:39.745Z,1988
2016-11-22T16:06:50.218Z,1924
2016-11-22T16:08:00.632Z,2040
2016-11-22T16:09:11.051Z,1692
2016-11-22T16:11:46.435Z,1668
2016-11-22T16:12:57.046Z,1588
2016-11-22T16:14:07.460Z,1960
2016-11-22T16:15:17.804Z,1948
2016-11-22T16:16:42.702Z,2024
2016-11-22T16:17:53.028Z,1944
2016-11-22T16:19:03.557Z,1604
2016-11-22T16:20:13.878Z,1552
2016-11-22T16:21:24.206Z,1364
2016-11-22T16:22:34.529Z,1264
2016-11-22T16:23:45.053Z,1308
2016-11-22T16:24:55.380Z,1412
2016-11-22T16:26:05.701Z,1532
2016-11-22T16:27:16.023Z,1688
2016-11-22T16:28:40.915Z,1744
2016-11-22T16:30:05.804Z,1420
2016-11-22T16:31:16.128Z,1480
2016-11-22T16:32:26.452Z,1560
2016-11-22T16:33:36.776Z,2048
2016-11-22T16:36:11.992Z,1732
2016-11-22T16:37:22.312Z,1352
2016-11-22T16:38:47.207Z,1448
2016-11-22T16:39:57.531Z,1380
2016-11-22T16:41:07.852Z,1264
2016-11-22T16:42:18.179Z,1464
2016-11-22T16:43:28.503Z,1336
2016-11-22T16:44:38.826Z,1136
2016-11-22T16:45:49.152Z,1112
2016-11-22T16:46:59.484Z,1184
2016-11-22T16:48:24.380Z,1264
2016-11-22T16:49:34.701Z,1188
2016-11-22T16:50:45.019Z,1328
2016-11-22T16:51:55.346Z,1524
2016-11-22T16:53:05.665Z,1504
2016-11-22T16:54:15.994Z,1376
2016-11-22T16:55:26.315Z,1412
2016-11-22T16:56:36.739Z,1276
2016-11-22T16:57:47.067Z,1276
2016-11-22T16:58:57.390Z,1404